Time;durP1;ratioP1;P1;durP2;ratioP2;P2;SDS_P1;SDS_P2;PMS_P1;PMS_P2;Temp;Humidity;BMP_temperature;BMP_pressure;BME280_temperature;BME280_humidity;BME280_pressure;Samples;Min_cycle;Max_cycle;Signal;HPM_P1;HPM_P2
2021/07/19 00:02:42;;;;;;;4.15;3.12;;;;;;;20.70;81.86;100295.38;2750709;86;21069;-66
2021/07/19 00:06:43;;;;;;;4.17;2.62;;;;;;;20.69;82.02;100295.91;2751027;86;22027;-65
2021/07/19 00:10:45;;;;;;;5.70;3.52;;;;;;;20.72;81.91;100291.14;2751324;86;21046;-66
2021/07/19 00:14:48;;;;;;;7.85;4.15;;;;;;;20.69;82.14;100295.91;2750926;86;21062;-67
2021/07/19 00:18:50;;;;;;;12.80;4.28;;;;;;;20.70;82.38;100292.67;2751220;86;21074;-66
2021/07/19 00:22:53;;;;;;;5.42;2.65;;;;;;;20.63;82.18;100298.01;2750886;86;21590;-66
2021/07/19 00:26:54;;;;;;;6.10;3.67;;;;;;;20.55;82.10;100294.09;2750970;86;21035;-65
2021/07/19 00:30:57;;;;;;;4.05;2.67;;;;;;;20.49;82.23;100300.27;2750989;85;21026;-65
2021/07/19 00:34:59;;;;;;;5.70;3.42;;;;;;;20.44;82.23;100302.68;2750963;86;21021;-66
2021/07/19 00:39:07;;;;;;;5.28;3.42;;;;;;;20.41;82.49;100301.22;2751269;86;21054;-65
2021/07/19 00:43:09;;;;;;;9.18;4.17;;;;;;;20.32;82.47;100305.89;2751041;86;21507;-66
2021/07/19 00:47:12;;;;;;;13.75;5.42;;;;;;;20.18;82.88;100300.00;2751382;85;21034;-65
2021/07/19 00:51:13;;;;;;;5.15;3.50;;;;;;;20.05;83.47;100300.67;2755647;86;21045;-65
2021/07/19 00:55:19;;;;;;;13.20;4.22;;;;;;;19.95;83.58;100305.86;2755296;86;21073;-66
2021/07/19 00:59:24;;;;;;;13.30;4.95;;;;;;;19.75;83.96;100306.89;2755563;86;21045;-66
2021/07/19 01:03:27;;;;;;;8.98;3.55;;;;;;;19.63;84.90;100301.13;2755408;86;21025;-65
2021/07/19 01:07:32;;;;;;;9.30;4.03;;;;;;;19.44;85.39;100306.53;2755187;86;21038;-66
2021/07/19 01:11:34;;;;;;;5.72;4.15;;;;;;;19.24;86.35;100315.14;2755091;86;21073;-66
2021/07/19 01:15:39;;;;;;;5.37;4.25;;;;;;;19.21;86.86;100317.38;2755233;86;21527;-67
2021/07/19 01:19:44;;;;;;;5.73;4.23;;;;;;;19.26;87.16;100317.17;2755409;86;21058;-66
2021/07/19 01:23:57;;;;;;;8.55;3.90;;;;;;;19.40;86.94;100318.72;2755535;86;21018;-67
2021/07/19 01:28:09;;;;;;;7.92;3.92;;;;;;;19.54;86.63;100315.70;2755258;85;21057;-66
2021/07/19 01:32:11;;;;;;;9.48;4.72;;;;;;;19.64;86.32;100311.39;2755257;85;21120;-66
2021/07/19 01:36:22;;;;;;;9.28;4.62;;;;;;;19.70;85.92;100313.37;2755061;86;21054;-65
2021/07/19 01:40:25;;;;;;;11.85;5.28;;;;;;;19.75;85.66;100311.44;2755395;86;21049;-66
2021/07/19 01:44:29;;;;;;;11.20;4.78;;;;;;;19.77;85.20;100314.28;2755270;86;21497;-66
2021/07/19 01:48:32;;;;;;;13.22;4.80;;;;;;;19.74;84.87;100311.97;2753685;85;21599;-65
2021/07/19 01:52:35;;;;;;;7.37;4.65;;;;;;;19.75;84.65;100308.73;2750862;85;21519;-65
2021/07/19 01:56:39;;;;;;;8.23;3.67;;;;;;;19.68;84.68;100307.32;2750849;86;21047;-66
2021/07/19 02:00:41;;;;;;;7.40;3.80;;;;;;;19.65;85.27;100307.67;2750730;86;21057;-66
2021/07/19 02:04:43;;;;;;;4.08;3.22;;;;;;;19.61;85.54;100308.57;2751023;86;21046;-66
2021/07/19 02:08:51;;;;;;;9.45;3.87;;;;;;;19.69;85.86;100303.59;2750701;85;21045;-66
2021/07/19 02:12:56;;;;;;;6.62;4.00;;;;;;;19.72;85.74;100295.13;2750507;86;21045;-66
2021/07/19 02:16:59;;;;;;;8.08;4.40;;;;;;;19.73;86.06;100295.45;2750452;86;21045;-65
2021/07/19 02:21:06;;;;;;;6.62;4.17;;;;;;;19.72;85.76;100292.42;2750791;85;21484;-66
2021/07/19 02:25:10;;;;;;;9.70;4.45;;;;;;;19.69;85.82;100302.25;2750590;86;21037;-66
2021/07/19 02:29:13;;;;;;;8.30;5.20;;;;;;;19.72;85.71;100301.02;2750785;86;21056;-67
2021/07/19 02:33:22;;;;;;;6.78;3.92;;;;;;;19.75;85.62;100305.55;2750111;86;21630;-66
2021/07/19 02:37:25;;;;;;;7.37;4.12;;;;;;;19.75;85.15;100301.50;2750475;86;21102;-66
2021/07/19 02:41:28;;;;;;;7.30;3.95;;;;;;;19.75;84.93;100308.73;2750685;86;21018;-67
2021/07/19 02:45:35;;;;;;;7.03;4.20;;;;;;;19.70;84.86;100306.62;2750681;85;21033;-66
2021/07/19 02:49:38;;;;;;;5.35;4.50;;;;;;;19.68;84.93;100308.14;2751833;85;21536;-66
2021/07/19 02:53:42;;;;;;;11.43;4.45;;;;;;;19.64;85.10;100304.64;2755092;85;21061;-66
2021/07/19 02:57:44;;;;;;;9.38;4.47;;;;;;;19.63;85.18;100317.31;2754978;86;21038;-66
2021/07/19 03:01:51;;;;;;;6.08;4.17;;;;;;;19.63;85.00;100311.91;2755030;86;21025;-67
2021/07/19 03:06:06;;;;;;;10.82;5.25;;;;;;;19.61;84.90;100315.81;2754846;86;21053;-67
2021/07/19 03:10:11;;;;;;;7.37;4.12;;;;;;;19.51;85.37;100322.82;2748217;86;21402;-67
2021/07/19 03:14:22;;;;;;;7.53;4.55;;;;;;;19.43;85.47;100335.87;2754968;86;21025;-66
2021/07/19 03:18:24;;;;;;;10.48;5.12;;;;;;;19.45;85.95;100339.22;2754782;86;21073;-67
2021/07/19 03:22:28;;;;;;;5.37;3.98;;;;;;;19.45;86.21;100340.57;2755382;86;21034;-68
2021/07/19 03:26:35;;;;;;;12.23;5.60;;;;;;;19.47;86.78;100335.86;2755204;86;21041;-67
2021/07/19 03:30:38;;;;;;;5.87;4.25;;;;;;;19.53;87.43;100334.27;2755403;86;21045;-67
2021/07/19 03:34:40;;;;;;;7.83;4.37;;;;;;;19.61;87.93;100338.74;2755260;86;22304;-68
2021/07/19 03:38:45;;;;;;;9.20;4.55;;;;;;;19.65;87.74;100339.55;2755485;86;21025;-67
2021/07/19 03:42:49;;;;;;;7.28;4.25;;;;;;;19.61;88.58;100342.30;2755607;86;21013;-67
2021/07/19 03:46:51;;;;;;;9.80;5.20;;;;;;;19.61;89.30;100333.34;2755795;86;22167;-67
2021/07/19 03:50:54;;;;;;;8.90;6.03;;;;;;;19.62;89.89;100327.78;2751916;85;21066;-67
2021/07/19 03:54:58;;;;;;;7.37;4.37;;;;;;;19.73;90.32;100332.37;2751137;86;21013;-68
2021/07/19 03:59:00;;;;;;;7.25;4.83;;;;;;;19.81;90.58;100329.61;2751136;86;21702;-67
2021/07/19 04:03:17;;;;;;;7.20;5.05;;;;;;;19.88;90.47;100322.43;2751150;86;21073;-65
2021/07/19 04:07:13;;;;;;;7.08;4.55;;;;;;;19.93;90.45;100323.27;2750490;86;21544;-65
2021/07/19 04:11:19;;;;;;;10.00;5.75;;;;;;;20.06;90.58;100333.39;2751004;85;21033;-65
2021/07/19 04:15:22;;;;;;;8.25;5.25;;;;;;;20.12;90.97;100332.14;2751177;86;21559;-65
2021/07/19 04:19:25;;;;;;;7.20;4.53;;;;;;;20.29;91.19;100324.33;2750904;86;21145;-67
2021/07/19 04:23:29;;;;;;;23.20;6.10;;;;;;;20.55;91.50;100321.11;2751370;86;21025;-64
2021/07/19 04:27:35;;;;;;;8.55;5.17;;;;;;;20.75;90.30;100319.13;2751214;85;21022;-65
2021/07/19 04:31:37;;;;;;;9.03;5.78;;;;;;;20.81;89.78;100321.09;2751658;86;21319;-66
2021/07/19 04:35:45;;;;;;;8.68;5.62;;;;;;;21.03;91.99;100319.73;2751288;85;21029;-64
2021/07/19 04:39:46;;;;;;;10.90;5.95;;;;;;;21.31;89.82;100323.00;2751411;86;21057;-66
2021/07/19 04:43:48;;;;;;;9.35;6.72;;;;;;;21.33;87.17;100318.23;2751719;86;21029;-66
2021/07/19 04:47:51;;;;;;;6.30;5.20;;;;;;;21.23;87.98;100324.83;2751633;86;21041;-65
2021/07/19 04:51:53;;;;;;;9.95;5.12;;;;;;;21.28;89.48;100320.69;2751694;85;21074;-65
2021/07/19 04:55:59;;;;;;;13.85;6.87;;;;;;;21.35;89.76;100317.51;2751574;86;21523;-67
2021/07/19 05:00:05;;;;;;;11.93;5.83;;;;;;;21.47;90.29;100306.48;2751837;86;21006;-65
2021/07/19 05:04:07;;;;;;;7.37;5.97;;;;;;;21.58;89.60;100315.06;2751616;86;21077;-66
2021/07/19 05:08:10;;;;;;;8.50;5.45;;;;;;;21.67;89.92;100313.92;2751537;86;21041;-66
2021/07/19 05:12:16;;;;;;;11.22;6.70;;;;;;;21.76;89.39;100315.95;2751376;85;21093;-66
2021/07/19 05:16:18;;;;;;;5.80;5.22;;;;;;;22.40;88.62;100306.67;2751547;86;21053;-66
2021/07/19 05:20:23;;;;;;;15.98;5.75;;;;;;;22.40;88.62;100306.67;2751435;86;21133;-66
2021/07/19 05:24:31;;;;;;;13.65;6.47;;;;;;;22.52;87.91;100300.67;2752016;86;20958;-66
2021/07/19 05:28:33;;;;;;;10.05;5.85;;;;;;;22.61;86.44;100308.09;2752025;86;21073;-66
2021/07/19 05:32:35;;;;;;;11.97;6.85;;;;;;;22.68;86.85;100309.78;2752083;86;20994;-65
2021/07/19 05:36:36;;;;;;;22.87;7.72;;;;;;;22.85;85.52;100312.11;2752030;86;21066;-66
2021/07/19 05:40:41;;;;;;;12.78;5.95;;;;;;;23.01;85.98;100329.03;2751917;86;21077;-66
2021/07/19 05:44:43;;;;;;;13.35;7.12;;;;;;;23.00;84.74;100324.65;2752002;85;21555;-65
2021/07/19 05:48:46;;;;;;;9.58;6.53;;;;;;;22.88;85.08;100310.33;2751890;85;20998;-65
2021/07/19 05:52:48;;;;;;;12.73;5.40;;;;;;;22.90;84.77;100300.65;2756153;86;21065;-66
2021/07/19 05:56:51;;;;;;;14.13;7.05;;;;;;;22.98;84.64;100318.06;2756355;86;21356;-65
2021/07/19 06:00:53;;;;;;;10.55;6.60;;;;;;;23.04;84.35;100321.29;2756171;86;21081;-67
2021/07/19 06:04:59;;;;;;;17.10;8.30;;;;;;;23.46;86.14;100329.26;2756217;86;23429;-66
2021/07/19 06:09:01;;;;;;;10.63;7.00;;;;;;;24.04;80.58;100333.64;2757065;86;21033;-67
2021/07/19 06:13:03;;;;;;;16.67;7.83;;;;;;;24.48;76.17;100334.73;2756729;86;20998;-65
2021/07/19 06:17:06;;;;;;;9.55;7.42;;;;;;;24.55;73.80;100329.23;2756826;86;21002;-64
2021/07/19 06:21:07;;;;;;;12.55;7.85;;;;;;;24.28;72.88;100322.59;2756423;85;21029;-65
2021/07/19 06:25:13;;;;;;;13.15;7.12;;;;;;;24.02;73.76;100327.09;2756470;86;21069;-67
2021/07/19 06:29:14;;;;;;;;;;;;;;;24.21;74.21;100334.02;2759357;86;21551;-65
2021/07/19 06:33:16;;;;;;;15.45;7.17;;;;;;;24.61;73.21;100328.91;2756778;86;20113;-66
2021/07/19 06:37:18;;;;;;;10.65;7.87;;;;;;;24.65;72.20;100332.84;2756752;85;21085;-64
2021/07/19 06:41:19;;;;;;;13.72;7.78;;;;;;;24.55;71.12;100336.03;2756433;86;21025;-64
2021/07/19 06:45:21;;;;;;;10.88;6.97;;;;;;;24.45;71.39;100341.13;2756651;86;21057;-65
2021/07/19 06:49:24;;;;;;;8.50;7.00;;;;;;;24.79;71.57;100339.91;2755908;84;21061;-67
2021/07/19 06:53:28;;;;;;;14.87;7.50;;;;;;;24.98;69.44;100339.99;2754384;85;21040;-65
2021/07/19 06:57:31;;;;;;;9.25;7.10;;;;;;;24.94;69.89;100335.51;2754136;84;21041;-65
2021/07/19 07:01:33;;;;;;;12.05;8.65;;;;;;;24.87;69.56;100342.08;2754230;86;21550;-63
2021/07/19 07:05:35;;;;;;;10.00;7.75;;;;;;;24.70;69.85;100344.44;2754701;86;21001;-66
2021/07/19 07:09:37;;;;;;;10.10;6.83;;;;;;;24.35;70.30;100356.00;2754468;86;21044;-65
2021/07/19 07:13:40;;;;;;;11.05;7.67;;;;;;;23.97;70.89;100352.65;2754199;85;21498;-67
2021/07/19 07:17:42;;;;;;;11.70;7.60;;;;;;;23.58;72.22;100359.31;2754135;86;21586;-65
2021/07/19 07:21:44;;;;;;;10.30;6.83;;;;;;;23.28;73.25;100373.30;2753974;86;21036;-65
2021/07/19 07:25:47;;;;;;;11.80;7.05;;;;;;;23.06;74.15;100380.77;2753943;86;21514;-66
2021/07/19 07:29:48;;;;;;;9.15;6.60;;;;;;;22.80;74.29;100386.47;2753754;86;21076;-65
2021/07/19 07:33:50;;;;;;;9.25;7.20;;;;;;;22.64;75.35;100382.23;2753099;86;21872;-66
2021/07/19 07:37:52;;;;;;;8.88;5.90;;;;;;;22.49;75.34;100389.16;2753937;86;21036;-65
2021/07/19 07:41:53;;;;;;;9.50;6.58;;;;;;;22.30;76.45;100386.13;2753301;86;21040;-64
2021/07/19 07:45:57;;;;;;;14.33;7.05;;;;;;;22.09;76.77;100386.55;2753261;86;21068;-68
2021/07/19 07:50:00;;;;;;;8.73;6.50;;;;;;;21.97;77.36;100389.48;2754134;86;21061;-67
2021/07/19 07:54:03;;;;;;;12.73;8.18;;;;;;;21.78;76.64;100393.75;2756035;86;21033;-65
2021/07/19 07:58:08;;;;;;;8.93;5.75;;;;;;;21.62;76.89;100394.85;2755873;86;21139;-66
2021/07/19 08:02:11;;;;;;;9.30;5.75;;;;;;;21.47;77.02;100390.86;2756372;86;21017;-65
2021/07/19 08:06:13;;;;;;;9.10;5.28;;;;;;;21.37;77.02;100388.48;2755817;85;21531;-66
2021/07/19 08:10:16;;;;;;;11.18;6.72;;;;;;;21.32;77.48;100388.24;2756157;86;21074;-63
2021/07/19 08:14:18;;;;;;;7.03;4.83;;;;;;;21.32;77.87;100390.95;2755811;86;21081;-64
2021/07/19 08:18:19;;;;;;;6.78;4.60;;;;;;;21.33;76.22;100392.63;2756153;86;21114;-66
2021/07/19 08:22:23;;;;;;;9.80;4.92;;;;;;;21.29;75.20;100399.45;2755954;86;21571;-67
2021/07/19 08:26:25;;;;;;;11.15;5.37;;;;;;;21.19;74.97;100400.60;2756251;86;21008;-64
2021/07/19 08:30:26;;;;;;;15.15;5.65;;;;;;;21.10;75.59;100405.83;2755831;86;21069;-65
2021/07/19 08:34:28;;;;;;;15.70;6.17;;;;;;;21.02;77.32;100400.53;2755528;86;20998;-66
2021/07/19 08:38:31;;;;;;;9.13;5.42;;;;;;;21.00;76.70;100402.59;2755916;86;21065;-68
2021/07/19 08:42:34;;;;;;;10.35;4.97;;;;;;;21.00;77.20;100402.59;2755501;86;21069;-65
2021/07/19 08:46:39;;;;;;;8.23;5.17;;;;;;;21.05;77.86;100409.11;2755744;86;21021;-66
2021/07/19 08:50:42;;;;;;;9.78;6.03;;;;;;;21.11;78.10;100410.20;2755791;85;21041;-65
2021/07/19 08:54:50;;;;;;;14.30;6.70;;;;;;;21.13;78.55;100410.85;2755824;86;21037;-66
2021/07/19 08:58:52;;;;;;;6.67;5.15;;;;;;;21.18;79.27;100417.05;2755971;86;21068;-66
2021/07/19 09:02:54;;;;;;;8.05;6.47;;;;;;;21.15;79.02;100416.91;2755757;86;21105;-66
2021/07/19 09:06:57;;;;;;;7.75;5.65;;;;;;;21.23;78.82;100412.73;2756293;86;21061;-64
2021/07/19 09:11:11;;;;;;;7.65;4.78;;;;;;;21.34;78.93;100413.23;2756236;86;21068;-65
2021/07/19 09:15:15;;;;;;;8.83;5.22;;;;;;;21.43;78.05;100421.55;2755798;85;21084;-66
2021/07/19 09:19:21;;;;;;;9.45;5.78;;;;;;;21.53;78.09;100426.63;2737152;86;21066;-66
2021/07/19 09:23:28;;;;;;;10.05;5.60;;;;;;;21.61;77.62;100428.34;2756253;86;21018;-65
2021/07/19 09:27:30;;;;;;;7.58;4.65;;;;;;;21.69;77.34;100432.30;2756209;84;21085;-66
2021/07/19 09:31:39;;;;;;;9.25;5.65;;;;;;;21.81;76.77;100430.75;2756260;86;21069;-66
2021/07/19 09:35:45;;;;;;;8.55;6.17;;;;;;;21.93;76.85;100428.33;2756092;86;21061;-67
2021/07/19 09:39:52;;;;;;;8.10;5.55;;;;;;;21.91;75.92;100424.98;2756173;86;21093;-67
2021/07/19 09:43:54;;;;;;;6.75;4.28;;;;;;;21.84;75.98;100429.50;2756029;86;21049;-68
2021/07/19 09:48:09;;;;;;;9.53;4.22;;;;;;;21.82;76.39;100426.16;2755729;86;21030;-66
2021/07/19 09:52:13;;;;;;;12.03;5.08;;;;;;;21.90;75.59;100425.98;2756177;84;21029;-66
2021/07/19 09:56:21;;;;;;;10.20;4.40;;;;;;;22.12;76.27;100427.31;2756558;86;21021;-67
2021/07/19 10:00:24;;;;;;;10.28;6.42;;;;;;;22.57;75.07;100424.21;2756219;86;21069;-65
2021/07/19 10:04:27;;;;;;;7.78;4.47;;;;;;;23.03;72.61;100406.96;2756467;86;21053;-68
2021/07/19 10:08:29;;;;;;;11.35;4.97;;;;;;;23.41;69.07;100405.06;2756734;86;21292;-66
2021/07/19 10:12:31;;;;;;;7.78;5.25;;;;;;;23.64;67.72;100394.30;2756618;86;21081;-66
2021/07/19 10:16:37;;;;;;;8.88;5.03;;;;;;;23.64;68.01;100398.37;2756781;86;21006;-67
2021/07/19 10:20:40;;;;;;;13.25;6.47;;;;;;;23.51;68.16;100404.11;2757068;86;21045;-67
2021/07/19 10:24:44;;;;;;;11.80;6.25;;;;;;;23.34;67.86;100397.41;2757311;86;21037;-68
2021/07/19 10:28:47;;;;;;;11.88;5.87;;;;;;;23.38;68.47;100395.95;2757060;85;21002;-67
2021/07/19 10:32:49;;;;;;;9.45;5.97;;;;;;;23.65;68.44;100391.89;2756953;86;21022;-67
2021/07/19 10:36:55;;;;;;;8.43;6.47;;;;;;;24.16;68.62;100388.16;2756918;86;21077;-65
2021/07/19 10:40:59;;;;;;;13.43;6.97;;;;;;;24.48;66.47;100392.34;2738138;85;21056;-66
2021/07/19 10:45:14;;;;;;;14.13;7.50;;;;;;;24.51;65.28;100391.91;2757339;86;21045;-65
2021/07/19 10:49:18;;;;;;;11.53;7.57;;;;;;;24.37;66.54;100392.49;2757360;86;20993;-66
2021/07/19 10:53:22;;;;;;;8.85;6.12;;;;;;;24.10;66.46;100398.84;2754466;85;21010;-67
2021/07/19 10:57:44;;;;;;;9.75;6.78;;;;;;;23.99;66.71;100399.48;2754203;85;21009;-69
2021/07/19 11:01:56;;;;;;;9.13;6.58;;;;;;;23.74;66.92;100394.69;2754404;85;21099;-66
2021/07/19 11:06:00;;;;;;;11.00;6.70;;;;;;;23.59;67.44;100391.39;2753865;85;21056;-67
2021/07/19 11:10:02;;;;;;;24.45;8.83;;;;;;;23.46;67.48;100397.63;2754111;85;21516;-65
2021/07/19 11:14:07;;;;;;;10.43;7.20;;;;;;;23.17;68.90;100391.00;2738885;86;21048;-68
2021/07/19 11:18:29;;;;;;;8.23;6.55;;;;;;;23.05;69.92;100389.42;2754392;85;21029;-67
2021/07/19 11:22:32;;;;;;;10.98;7.47;;;;;;;23.17;68.62;100393.70;2753715;85;21048;-66
2021/07/19 11:26:38;;;;;;;10.13;8.15;;;;;;;23.19;69.34;100387.58;2753829;86;21044;-63
2021/07/19 11:30:41;;;;;;;13.22;7.25;;;;;;;23.43;69.62;100372.27;2752867;85;21045;-64
2021/07/19 11:34:46;;;;;;;12.75;7.90;;;;;;;23.65;68.10;100370.17;2754113;85;21021;-67
2021/07/19 11:38:49;;;;;;;9.43;6.55;;;;;;;23.70;67.11;100369.55;2754198;86;20993;-67
2021/07/19 11:42:52;;;;;;;10.75;6.58;;;;;;;23.64;67.32;100363.89;2754115;86;21064;-64
2021/07/19 11:46:58;;;;;;;9.80;7.83;;;;;;;23.56;65.24;100360.55;2753808;85;21081;-65
2021/07/19 11:51:01;;;;;;;9.13;6.80;;;;;;;23.51;66.19;100361.21;2754760;86;21038;-64
2021/07/19 11:55:06;;;;;;;11.97;7.85;;;;;;;23.52;65.75;100366.41;2756806;86;21037;-66
2021/07/19 11:59:08;;;;;;;17.60;8.53;;;;;;;23.37;65.63;100367.14;2757215;86;21033;-68
2021/07/19 12:03:13;;;;;;;13.35;7.78;;;;;;;23.34;67.03;100362.13;2756708;85;21053;-67
2021/07/19 12:07:15;;;;;;;11.78;7.05;;;;;;;23.27;67.00;100362.13;2726485;86;21106;-68
2021/07/19 12:11:17;;;;;;;13.43;8.05;;;;;;;23.17;68.47;100359.80;2711889;86;21376;-64
2021/07/19 12:15:19;;;;;;;10.68;7.30;;;;;;;23.21;68.59;100362.94;2712301;86;21003;-65
2021/07/19 12:19:22;;;;;;;11.65;7.62;;;;;;;23.25;67.79;100354.69;2712048;87;21086;-68
2021/07/19 12:23:45;;;;;;;8.60;6.42;;;;;;;23.23;67.37;100347.28;2712211;86;21058;-66
2021/07/19 12:28:01;;;;;;;14.15;8.05;;;;;;;23.16;67.87;100345.92;2711577;87;21051;-68
2021/07/19 12:32:06;;;;;;;11.70;8.45;;;;;;;23.08;68.29;100348.84;2711773;87;21054;-66
2021/07/19 12:36:09;;;;;;;;;;;;;;;23.05;68.23;100358.76;2714234;87;21034;-66
2021/07/19 12:40:12;;;;;;;14.38;8.88;;;;;;;23.00;68.26;100354.48;2688495;87;20155;-66
2021/07/19 12:44:15;;;;;;;13.88;9.63;;;;;;;23.05;69.09;100350.62;2688514;88;21051;-66
2021/07/19 12:48:17;;;;;;;12.47;9.18;;;;;;;23.47;70.56;100341.78;2688749;88;21027;-66
2021/07/19 12:52:23;;;;;;;11.93;7.47;;;;;;;24.00;68.21;100344.09;2689239;88;21091;-67
2021/07/19 12:56:27;;;;;;;10.00;7.60;;;;;;;24.09;64.65;100337.39;2689305;88;21079;-65
2021/07/19 13:00:30;;;;;;;13.70;9.53;;;;;;;24.14;63.57;100339.98;2689211;88;20984;-66
2021/07/19 13:04:36;;;;;;;12.58;8.05;;;;;;;24.12;62.22;100333.94;2689336;88;21658;-66
2021/07/19 13:08:37;;;;;;;;;;;;;;;24.06;63.75;100332.91;2691434;88;21314;-67
2021/07/19 13:13:00;;;;;;;13.95;7.60;;;;;;;23.90;64.00;100330.11;2688492;87;20148;-66
2021/07/19 13:17:02;;;;;;;9.58;8.10;;;;;;;23.79;65.11;100321.59;2688620;88;21093;-66
2021/07/19 13:21:08;;;;;;;14.80;9.25;;;;;;;23.67;65.12;100328.70;2688387;88;21545;-68
2021/07/19 13:25:21;;;;;;;16.67;9.88;;;;;;;23.55;65.11;100327.16;2688998;87;21007;-68
2021/07/19 13:29:27;;;;;;;14.28;8.58;;;;;;;23.36;65.77;100328.84;2688979;88;21087;-64
2021/07/19 13:33:31;;;;;;;15.75;9.08;;;;;;;23.18;65.77;100333.52;2689042;88;21046;-65
2021/07/19 13:37:34;;;;;;;15.48;10.05;;;;;;;23.08;66.46;100338.00;2688664;88;21160;-66
2021/07/19 13:41:36;;;;;;;18.60;10.55;;;;;;;23.07;66.21;100333.61;2688721;88;21071;-67
2021/07/19 13:45:38;;;;;;;14.80;10.75;;;;;;;23.11;65.97;100330.80;2688984;88;21079;-65
2021/07/19 13:49:40;;;;;;;17.50;9.40;;;;;;;23.31;65.88;100329.99;2659980;89;21104;-65
2021/07/19 13:53:42;;;;;;;15.45;10.45;;;;;;;23.37;64.50;100335.93;2703804;87;21023;-67
2021/07/19 13:57:44;;;;;;;21.95;13.18;;;;;;;23.25;64.93;100333.86;2678431;89;21089;-66
2021/07/19 14:01:47;;;;;;;16.57;11.63;;;;;;;23.17;64.69;100336.73;2634303;90;21091;-67
2021/07/19 14:05:50;;;;;;;21.85;12.98;;;;;;;23.13;64.47;100340.09;2678793;89;21018;-64
2021/07/19 14:09:53;;;;;;;14.45;10.45;;;;;;;23.06;64.65;100337.38;2678779;89;21053;-67
2021/07/19 14:13:55;;;;;;;19.15;11.57;;;;;;;22.91;65.13;100338.39;2678271;89;21014;-68
2021/07/19 14:17:57;;;;;;;13.60;10.03;;;;;;;22.80;65.62;100337.66;2634168;90;21122;-68
2021/07/19 14:21:59;;;;;;;20.45;10.95;;;;;;;22.87;65.65;100349.34;2677959;89;21074;-70
2021/07/19 14:26:02;;;;;;;16.90;12.03;;;;;;;22.75;65.42;100346.91;2704733;88;21034;-70
2021/07/19 14:30:11;;;;;;;16.97;11.63;;;;;;;22.80;65.44;100345.80;2677331;87;21086;-68
2021/07/19 14:34:13;;;;;;;14.28;10.58;;;;;;;23.08;65.74;100338.00;2677085;89;21038;-64
2021/07/19 14:38:15;;;;;;;17.07;11.18;;;;;;;23.01;64.37;100339.34;2676012;89;21081;-63
2021/07/19 14:42:18;;;;;;;24.35;10.93;;;;;;;23.06;64.21;100339.55;2624896;90;21014;-66
2021/07/19 14:46:20;;;;;;;16.50;10.23;;;;;;;23.23;63.08;100336.43;2690696;88;21063;-67
2021/07/19 14:50:24;;;;;;;21.82;11.20;;;;;;;23.30;63.22;100332.39;2624442;90;21138;-67
2021/07/19 14:54:26;;;;;;;13.18;10.53;;;;;;;23.47;62.84;100346.36;2671393;88;21084;-68
2021/07/19 14:58:33;;;;;;;16.90;10.05;;;;;;;23.50;62.01;100340.00;2667662;88;21084;-68
2021/07/19 15:02:40;;;;;;;21.17;10.65;;;;;;;23.44;62.30;100346.28;2667357;89;21036;-67
2021/07/19 15:06:44;;;;;;;17.80;10.18;;;;;;;23.47;63.52;100339.58;2666885;89;21085;-68
2021/07/19 15:10:55;;;;;;;14.05;10.08;;;;;;;23.58;62.59;100335.39;2667078;88;21063;-68
2021/07/19 15:15:06;;;;;;;12.45;9.28;;;;;;;23.65;63.09;100334.88;2583708;89;21048;-67
2021/07/19 15:19:11;;;;;;;12.05;9.50;;;;;;;23.62;63.94;100323.09;2646319;89;21072;-67
2021/07/19 15:23:16;;;;;;;14.50;10.05;;;;;;;23.58;63.42;100327.24;2667056;88;21600;-64
2021/07/19 15:27:21;;;;;;;14.38;10.00;;;;;;;23.61;63.04;100328.20;2664656;88;21088;-66
2021/07/19 15:31:24;;;;;;;;;;;;;;;23.63;63.07;100331.00;2670687;89;21087;-63
2021/07/19 15:35:26;;;;;;;16.48;10.78;;;;;;;23.69;63.35;100323.89;2668529;88;20113;-62
2021/07/19 15:39:28;;;;;;;17.50;10.82;;;;;;;23.59;62.88;100319.44;2668419;88;21047;-63
2021/07/19 15:43:31;;;;;;;18.55;10.20;;;;;;;23.49;63.21;100309.83;2668157;89;21024;-63
2021/07/19 15:47:34;;;;;;;14.40;9.20;;;;;;;23.56;63.62;100311.70;2667638;88;21072;-62
2021/07/19 15:51:36;;;;;;;25.40;13.35;;;;;;;23.68;62.86;100306.79;2669032;88;21028;-63
2021/07/19 15:55:39;;;;;;;15.48;9.05;;;;;;;23.87;62.36;100314.25;2674504;89;21031;-62
2021/07/19 15:59:41;;;;;;;14.25;9.33;;;;;;;23.92;62.23;100309.00;2674576;89;21028;-63
2021/07/19 16:03:43;;;;;;;14.35;9.13;;;;;;;23.81;62.33;100311.86;2674578;88;21075;-63
2021/07/19 16:07:45;;;;;;;14.75;10.43;;;;;;;23.58;63.25;100314.52;2674761;89;21059;-61
2021/07/19 16:11:47;;;;;;;17.25;10.45;;;;;;;23.34;62.20;100314.64;2727299;86;21005;-63
2021/07/19 16:15:48;;;;;;;25.37;11.43;;;;;;;23.07;63.16;100314.09;2752428;86;21097;-63
2021/07/19 16:19:50;;;;;;;22.77;10.80;;;;;;;23.02;63.74;100316.59;2751820;86;21097;-64
2021/07/19 16:23:52;;;;;;;16.32;9.93;;;;;;;22.84;63.18;100306.38;2752280;86;21017;-63
2021/07/19 16:27:54;;;;;;;15.23;9.28;;;;;;;22.74;63.64;100320.84;2752074;86;21074;-63
2021/07/19 16:31:56;;;;;;;22.35;10.53;;;;;;;22.73;62.61;100318.66;2712157;86;21035;-63
2021/07/19 16:36:00;;;;;;;15.68;9.70;;;;;;;22.65;63.07;100322.39;2710073;86;21560;-62
2021/07/19 16:40:02;;;;;;;16.50;10.10;;;;;;;22.68;63.22;100318.42;2710426;87;21062;-63
2021/07/19 16:44:05;;;;;;;18.82;9.80;;;;;;;22.61;61.46;100323.00;2709005;87;21047;-63
2021/07/19 16:48:07;;;;;;;17.30;9.68;;;;;;;22.50;63.01;100314.45;2709928;87;21600;-64
2021/07/19 16:52:09;;;;;;;12.43;8.78;;;;;;;22.56;62.83;100310.59;2707920;86;21119;-63
2021/07/19 16:56:13;;;;;;;26.87;11.03;;;;;;;22.62;63.45;100316.54;2698252;88;21079;-63
2021/07/19 17:00:16;;;;;;;16.10;9.08;;;;;;;22.63;62.71;100316.34;2689108;87;21094;-63
2021/07/19 17:04:20;;;;;;;17.80;10.25;;;;;;;22.54;62.91;100317.56;2685733;88;21059;-63
2021/07/19 17:08:22;;;;;;;19.12;9.95;;;;;;;22.39;63.02;100315.80;2685697;88;21341;-62
2021/07/19 17:12:25;;;;;;;11.85;8.70;;;;;;;22.24;63.33;100315.97;2685620;88;21020;-64
2021/07/19 17:16:31;;;;;;;10.88;7.62;;;;;;;22.10;62.58;100320.50;2686083;88;21059;-62
2021/07/19 17:20:33;;;;;;;17.87;8.95;;;;;;;21.95;62.09;100323.86;2685734;88;21119;-63
2021/07/19 17:24:37;;;;;;;15.78;9.45;;;;;;;21.81;62.63;100325.16;2685684;88;21091;-63
2021/07/19 17:28:38;;;;;;;23.10;8.73;;;;;;;21.67;63.02;100320.69;2686012;87;21025;-64
2021/07/19 17:32:42;;;;;;;14.18;8.13;;;;;;;21.51;63.08;100322.63;2685428;88;21043;-64
2021/07/19 17:36:45;;;;;;;15.68;7.25;;;;;;;21.32;63.42;100315.20;2695269;88;21050;-63
2021/07/19 17:40:47;;;;;;;13.15;7.35;;;;;;;21.12;64.57;100316.69;2698112;88;21051;-63
2021/07/19 17:44:50;;;;;;;9.43;6.97;;;;;;;20.95;64.88;100318.02;2696545;88;21074;-63
2021/07/19 17:48:52;;;;;;;11.57;8.18;;;;;;;20.78;65.98;100316.89;2698090;88;21000;-64
2021/07/19 17:52:55;;;;;;;12.88;7.40;;;;;;;20.62;66.79;100319.30;2697698;86;21071;-62
2021/07/19 17:56:58;;;;;;;22.48;9.08;;;;;;;20.51;67.82;100315.23;2697350;88;21098;-63
2021/07/19 18:01:00;;;;;;;15.20;8.80;;;;;;;20.46;68.63;100317.68;2686291;88;21534;-65
2021/07/19 18:05:04;;;;;;;17.00;8.43;;;;;;;20.43;69.11;100312.66;2682171;88;21549;-63
2021/07/19 18:09:08;;;;;;;18.20;9.65;;;;;;;20.39;69.33;100307.33;2680852;88;21568;-63
2021/07/19 18:13:10;;;;;;;20.90;10.85;;;;;;;20.22;69.87;100308.05;2657664;88;21438;-63
2021/07/19 18:17:13;;;;;;;17.62;9.95;;;;;;;20.10;70.73;100312.59;2683038;88;22008;-64
2021/07/19 18:21:17;;;;;;;20.75;10.50;;;;;;;20.04;71.39;100314.67;2682336;88;21035;-63
2021/07/19 18:33:48;;;;;;;13.83;9.45;;;;;;;19.99;72.11;100321.16;2693465;88;21089;-64
2021/07/19 18:37:50;;;;;;;13.15;8.58;;;;;;;19.94;72.41;100315.48;2695492;88;21067;-64
2021/07/19 18:41:52;;;;;;;21.30;9.60;;;;;;;19.88;72.66;100326.48;2695438;88;21012;-64
2021/07/19 18:45:56;;;;;;;21.15;10.13;;;;;;;19.79;72.96;100337.88;2692850;88;21020;-65
2021/07/19 18:49:58;;;;;;;14.05;9.38;;;;;;;19.77;73.16;100335.87;2693763;88;21067;-65
2021/07/19 18:54:00;;;;;;;15.93;9.18;;;;;;;19.78;73.15;100338.91;2695390;86;21039;-64